Gentle Leader — C6WY9 — position and weather

sailwx.info

Track history (hours):
 
Tides and Currents Weather Stations Pressure Air Temp Water Temp Dewpoint Dewpoint Depression Visibility Wind Speed Wind Dir Waves Ship Positions

Gentle Leader

Last reported at 2014-Aug-22 14:06 UTC. Time now 2014-Aug-23 15:26 UTC.
Position N 28°23' W 119°57'.

Length 200 m; draft 9.1 m.

Type: Cargo ship. MMSI: 311003300.

Date/timePositionNaut miles runAvg speedWind from/ knotsBaromVisibWave heightAir tempDewpointWater temp
2014-Aug-22 14:06N 28°23' W 119°57'915.0
2014-Aug-22 13:31N 28°28' W 120°05'1415.0
2014-Aug-22 12:33N 28°36' W 120°19'1514.8
2014-Aug-22 11:32N 28°45' W 120°33'3015.0
2014-Aug-22 09:33N 29°01' W 121°02'1515.4
2014-Aug-22 08:34N 29°10' W 121°16'1615.4
2014-Aug-22 07:30N 29°19' W 121°31'1815.2
2014-Aug-22 06:18N 29°29' W 121°49'1415.3
2014-Aug-22 05:24N 29°36' W 122°02'1415.4
2014-Aug-22 04:31N 29°44' W 122°15'6415.4
2014-Aug-22 00:21N 30°19' W 123°17'1215.6
2014-Aug-21 23:33N 30°26' W 123°28'1615.5
2014-Aug-21 22:33N 30°35' W 123°43'3515.4
2014-Aug-21 20:15N 30°55' W 124°17'  
Track history (hours):
 
Tides and Currents Weather Stations Pressure Air Temp Water Temp Dewpoint Dewpoint Depression Visibility Wind Speed Wind Dir Waves Ship Positions

Gentle Leader

Last reported at 2014-Aug-22 14:06 UTC. Time now 2014-Aug-23 15:26 UTC.
Position N 28°23' W 119°57'.

Length 200 m; draft 9.1 m.

Type: Cargo ship. MMSI: 311003300.

Date/timePositionNaut miles runAvg speedWind from/ knotsBaromVisibWave heightAir tempDewpointWater temp
2014-Aug-22 14:06N 28°23' W 119°57'915.0
2014-Aug-22 13:31N 28°28' W 120°05'1415.0
2014-Aug-22 12:33N 28°36' W 120°19'1514.8
2014-Aug-22 11:32N 28°45' W 120°33'3015.0
2014-Aug-22 09:33N 29°01' W 121°02'1515.4
2014-Aug-22 08:34N 29°10' W 121°16'1615.4
2014-Aug-22 07:30N 29°19' W 121°31'1815.2
2014-Aug-22 06:18N 29°29' W 121°49'1415.3
2014-Aug-22 05:24N 29°36' W 122°02'1415.4
2014-Aug-22 04:31N 29°44' W 122°15'6415.4
2014-Aug-22 00:21N 30°19' W 123°17'1215.6
2014-Aug-21 23:33N 30°26' W 123°28'1615.5
2014-Aug-21 22:33N 30°35' W 123°43'3515.4
2014-Aug-21 20:15N 30°55' W 124°17'  

Dump ship's entire track history